Terminal Aerodrome Forecast
Issued by NWS

Home | Current Version | Previous Version | Text Only | Print | Product List | Glossary On
Versions: 1 2 3 4 5 6 7 8 9 10 11 12 13 14 15 16 17 18
000
FTAK31 PAJN 201700 CCA
TAFAGY
TAF COR
PAGY 201735Z 2018/2118 VRB02KT P6SM -RA SCT025 OVC050
      TEMPO 2018/2022 2SM RA BR SCT006 BKN025 OVC050
     FM202300 21025G35KT P6SM -RA FEW006 SCT020 OVC060
     FM210600 21012G20KT P6SM VCSH FEW006 SCT020 OVC060
     FM210800 VRB06KT P6SM VCSH OVC050
     FM211700 00000KT 4SM -RA BR FEW006 SCT020 OVC040
      AMD LTD TO CLD VIS AND WIND=

USA.gov is the U.S. government's official web portal to all federal, state and local government web resources and services.